sensor_id;sensor_type;location;lat;lon;timestamp;temperature;humidity
25906;DHT22;13713;52.552;13.204;2022-09-09T00:01:50;22.60;59.90
25906;DHT22;13713;52.552;13.204;2022-09-09T00:04:34;22.60;59.90
25906;DHT22;13713;52.552;13.204;2022-09-09T00:07:25;22.60;60.00
25906;DHT22;13713;52.552;13.204;2022-09-09T00:12:32;22.60;59.90
25906;DHT22;13713;52.552;13.204;2022-09-09T00:15:22;22.60;59.90
25906;DHT22;13713;52.552;13.204;2022-09-09T00:18:01;22.60;59.90
25906;DHT22;13713;52.552;13.204;2022-09-09T00:23:27;22.60;59.90
25906;DHT22;13713;52.552;13.204;2022-09-09T00:26:14;22.60;59.90
25906;DHT22;13713;52.552;13.204;2022-09-09T00:28:51;22.60;60.00
25906;DHT22;13713;52.552;13.204;2022-09-09T00:31:28;22.60;59.90
25906;DHT22;13713;52.552;13.204;2022-09-09T00:33:55;22.60;59.90
25906;DHT22;13713;52.552;13.204;2022-09-09T00:36:25;22.60;59.90
25906;DHT22;13713;52.552;13.204;2022-09-09T00:39:00;22.60;59.90
25906;DHT22;13713;52.552;13.204;2022-09-09T00:41:31;22.60;59.90
25906;DHT22;13713;52.552;13.204;2022-09-09T00:47:21;22.60;59.80
25906;DHT22;13713;52.552;13.204;2022-09-09T00:50:00;22.60;59.90
25906;DHT22;13713;52.552;13.204;2022-09-09T00:52:40;22.50;59.90
25906;DHT22;13713;52.552;13.204;2022-09-09T00:55:19;22.50;59.80
25906;DHT22;13713;52.552;13.204;2022-09-09T00:57:48;22.60;59.90
25906;DHT22;13713;52.552;13.204;2022-09-09T01:00:23;22.60;59.90
25906;DHT22;13713;52.552;13.204;2022-09-09T01:08:02;22.50;59.80
25906;DHT22;13713;52.552;13.204;2022-09-09T01:10:50;22.50;60.60
25906;DHT22;13713;52.552;13.204;2022-09-09T01:13:30;22.60;59.80
25906;DHT22;13713;52.552;13.204;2022-09-09T01:15:59;22.50;59.80
25906;DHT22;13713;52.552;13.204;2022-09-09T01:18:32;22.50;59.80
25906;DHT22;13713;52.552;13.204;2022-09-09T01:21:31;22.50;59.80
25906;DHT22;13713;52.552;13.204;2022-09-09T01:24:12;22.50;59.80
25906;DHT22;13713;52.552;13.204;2022-09-09T01:26:56;22.60;59.80
25906;DHT22;13713;52.552;13.204;2022-09-09T01:29:25;22.50;59.80
25906;DHT22;13713;52.552;13.204;2022-09-09T01:31:59;22.50;59.80
25906;DHT22;13713;52.552;13.204;2022-09-09T01:34:30;22.50;59.80
25906;DHT22;13713;52.552;13.204;2022-09-09T01:36:58;22.50;59.80
25906;DHT22;13713;52.552;13.204;2022-09-09T01:39:25;22.50;59.80
25906;DHT22;13713;52.552;13.204;2022-09-09T01:41:59;22.50;59.80
25906;DHT22;13713;52.552;13.204;2022-09-09T01:44:26;22.50;59.80
25906;DHT22;13713;52.552;13.204;2022-09-09T01:46:52;22.50;59.80
25906;DHT22;13713;52.552;13.204;2022-09-09T01:49:20;22.50;59.80
25906;DHT22;13713;52.552;13.204;2022-09-09T01:51:49;22.50;59.70
25906;DHT22;13713;52.552;13.204;2022-09-09T01:54:15;22.50;59.80
25906;DHT22;13713;52.552;13.204;2022-09-09T01:57:06;22.50;59.70
25906;DHT22;13713;52.552;13.204;2022-09-09T01:59:57;22.50;59.80
25906;DHT22;13713;52.552;13.204;2022-09-09T02:05:41;22.50;59.80
25906;DHT22;13713;52.552;13.204;2022-09-09T02:08:23;22.50;59.70
25906;DHT22;13713;52.552;13.204;2022-09-09T02:11:01;22.50;59.70
25906;DHT22;13713;52.552;13.204;2022-09-09T02:13:39;22.50;59.70
25906;DHT22;13713;52.552;13.204;2022-09-09T02:16:33;22.50;59.70
25906;DHT22;13713;52.552;13.204;2022-09-09T02:19:06;22.50;59.70
25906;DHT22;13713;52.552;13.204;2022-09-09T02:21:45;22.50;59.70
25906;DHT22;13713;52.552;13.204;2022-09-09T02:24:14;22.50;59.70
25906;DHT22;13713;52.552;13.204;2022-09-09T02:26:49;22.50;59.70
25906;DHT22;13713;52.552;13.204;2022-09-09T02:29:39;22.50;59.70
25906;DHT22;13713;52.552;13.204;2022-09-09T02:32:11;22.50;59.70
25906;DHT22;13713;52.552;13.204;2022-09-09T02:34:48;22.50;59.70
25906;DHT22;13713;52.552;13.204;2022-09-09T02:37:18;22.50;59.70
25906;DHT22;13713;52.552;13.204;2022-09-09T02:39:48;22.50;59.70
25906;DHT22;13713;52.552;13.204;2022-09-09T02:42:17;22.50;59.70
25906;DHT22;13713;52.552;13.204;2022-09-09T02:44:44;22.50;59.70
25906;DHT22;13713;52.552;13.204;2022-09-09T02:52:21;22.40;59.60
25906;DHT22;13713;52.552;13.204;2022-09-09T02:54:57;22.50;59.70
25906;DHT22;13713;52.552;13.204;2022-09-09T02:57:27;22.50;59.70
25906;DHT22;13713;52.552;13.204;2022-09-09T02:59:53;22.50;59.70
25906;DHT22;13713;52.552;13.204;2022-09-09T03:02:23;22.50;59.60
25906;DHT22;13713;52.552;13.204;2022-09-09T03:04:54;22.50;59.60
25906;DHT22;13713;52.552;13.204;2022-09-09T03:07:20;22.50;59.60
25906;DHT22;13713;52.552;13.204;2022-09-09T03:09:47;22.40;59.60
25906;DHT22;13713;52.552;13.204;2022-09-09T03:12:12;22.50;59.60
25906;DHT22;13713;52.552;13.204;2022-09-09T03:14:39;22.50;59.60
25906;DHT22;13713;52.552;13.204;2022-09-09T03:17:05;22.50;59.60
25906;DHT22;13713;52.552;13.204;2022-09-09T03:19:36;22.50;59.60
25906;DHT22;13713;52.552;13.204;2022-09-09T03:22:03;22.50;59.60
25906;DHT22;13713;52.552;13.204;2022-09-09T03:24:31;22.50;59.60
25906;DHT22;13713;52.552;13.204;2022-09-09T03:26:57;22.50;59.60
25906;DHT22;13713;52.552;13.204;2022-09-09T03:29:23;22.50;59.60
25906;DHT22;13713;52.552;13.204;2022-09-09T03:31:51;22.40;59.50
25906;DHT22;13713;52.552;13.204;2022-09-09T03:34:17;22.50;59.60
25906;DHT22;13713;52.552;13.204;2022-09-09T03:36:43;22.40;59.50
25906;DHT22;13713;52.552;13.204;2022-09-09T03:39:08;22.40;59.50
25906;DHT22;13713;52.552;13.204;2022-09-09T03:41:34;22.50;59.50
25906;DHT22;13713;52.552;13.204;2022-09-09T03:44:01;22.50;59.50
25906;DHT22;13713;52.552;13.204;2022-09-09T03:46:31;22.50;59.50
25906;DHT22;13713;52.552;13.204;2022-09-09T03:48:57;22.50;59.50
25906;DHT22;13713;52.552;13.204;2022-09-09T03:51:23;22.40;59.40
25906;DHT22;13713;52.552;13.204;2022-09-09T03:53:49;22.50;59.50
25906;DHT22;13713;52.552;13.204;2022-09-09T03:56:15;22.40;59.50
25906;DHT22;13713;52.552;13.204;2022-09-09T03:58:41;22.40;59.40
25906;DHT22;13713;52.552;13.204;2022-09-09T04:01:11;22.40;59.50
25906;DHT22;13713;52.552;13.204;2022-09-09T04:03:42;22.50;59.50
25906;DHT22;13713;52.552;13.204;2022-09-09T04:06:09;22.40;59.40
25906;DHT22;13713;52.552;13.204;2022-09-09T04:08:37;22.50;59.50
25906;DHT22;13713;52.552;13.204;2022-09-09T04:11:04;22.50;59.50
25906;DHT22;13713;52.552;13.204;2022-09-09T04:13:34;22.40;59.40
25906;DHT22;13713;52.552;13.204;2022-09-09T04:16:02;22.40;59.40
25906;DHT22;13713;52.552;13.204;2022-09-09T04:18:29;22.50;59.50
25906;DHT22;13713;52.552;13.204;2022-09-09T04:20:56;22.40;59.40
25906;DHT22;13713;52.552;13.204;2022-09-09T04:23:27;22.40;59.40
25906;DHT22;13713;52.552;13.204;2022-09-09T04:25:57;22.40;59.40
25906;DHT22;13713;52.552;13.204;2022-09-09T04:28:25;22.40;59.40
25906;DHT22;13713;52.552;13.204;2022-09-09T04:30:52;22.40;59.40
25906;DHT22;13713;52.552;13.204;2022-09-09T04:33:18;22.40;59.40
25906;DHT22;13713;52.552;13.204;2022-09-09T04:35:48;22.40;59.40
25906;DHT22;13713;52.552;13.204;2022-09-09T04:38:16;22.40;59.40
25906;DHT22;13713;52.552;13.204;2022-09-09T04:40:44;22.40;59.30
25906;DHT22;13713;52.552;13.204;2022-09-09T04:43:12;22.40;59.30
25906;DHT22;13713;52.552;13.204;2022-09-09T04:45:38;22.40;59.30
25906;DHT22;13713;52.552;13.204;2022-09-09T04:48:07;22.40;59.30
25906;DHT22;13713;52.552;13.204;2022-09-09T04:50:33;22.40;59.30
25906;DHT22;13713;52.552;13.204;2022-09-09T04:53:03;22.40;59.30
25906;DHT22;13713;52.552;13.204;2022-09-09T04:55:31;22.40;59.30
25906;DHT22;13713;52.552;13.204;2022-09-09T04:57:57;22.40;59.30
25906;DHT22;13713;52.552;13.204;2022-09-09T05:00:24;22.40;59.40
25906;DHT22;13713;52.552;13.204;2022-09-09T05:02:50;22.40;59.30
25906;DHT22;13713;52.552;13.204;2022-09-09T05:05:17;22.40;59.30
25906;DHT22;13713;52.552;13.204;2022-09-09T05:07:45;22.40;59.30
25906;DHT22;13713;52.552;13.204;2022-09-09T05:10:13;22.40;59.30
25906;DHT22;13713;52.552;13.204;2022-09-09T05:12:39;22.40;59.30
25906;DHT22;13713;52.552;13.204;2022-09-09T05:15:05;22.40;59.30
25906;DHT22;13713;52.552;13.204;2022-09-09T05:17:31;22.40;59.30
25906;DHT22;13713;52.552;13.204;2022-09-09T05:19:56;22.40;59.30
25906;DHT22;13713;52.552;13.204;2022-09-09T05:22:22;22.40;59.30
25906;DHT22;13713;52.552;13.204;2022-09-09T05:24:50;22.40;59.20
25906;DHT22;13713;52.552;13.204;2022-09-09T05:27:17;22.50;59.30
25906;DHT22;13713;52.552;13.204;2022-09-09T05:29:45;22.50;59.30
25906;DHT22;13713;52.552;13.204;2022-09-09T05:32:12;22.40;59.20
25906;DHT22;13713;52.552;13.204;2022-09-09T05:34:40;22.50;59.30
25906;DHT22;13713;52.552;13.204;2022-09-09T05:37:06;22.50;59.30
25906;DHT22;13713;52.552;13.204;2022-09-09T05:39:34;22.50;59.20
25906;DHT22;13713;52.552;13.204;2022-09-09T05:42:02;22.50;59.20
25906;DHT22;13713;52.552;13.204;2022-09-09T05:44:30;22.50;59.20
25906;DHT22;13713;52.552;13.204;2022-09-09T05:46:57;22.50;59.20
25906;DHT22;13713;52.552;13.204;2022-09-09T05:49:23;22.50;59.20
25906;DHT22;13713;52.552;13.204;2022-09-09T05:51:49;22.60;59.20
25906;DHT22;13713;52.552;13.204;2022-09-09T05:54:17;22.60;59.20
25906;DHT22;13713;52.552;13.204;2022-09-09T05:56:47;22.50;59.10
25906;DHT22;13713;52.552;13.204;2022-09-09T05:59:15;22.60;59.20
25906;DHT22;13713;52.552;13.204;2022-09-09T06:01:40;22.60;59.20
25906;DHT22;13713;52.552;13.204;2022-09-09T06:04:08;22.50;59.90
25906;DHT22;13713;52.552;13.204;2022-09-09T06:06:38;22.50;59.40
25906;DHT22;13713;52.552;13.204;2022-09-09T06:09:11;22.60;59.60
25906;DHT22;13713;52.552;13.204;2022-09-09T06:11:39;22.50;59.60
25906;DHT22;13713;52.552;13.204;2022-09-09T06:14:06;22.50;59.60
25906;DHT22;13713;52.552;13.204;2022-09-09T06:16:34;22.50;59.80
25906;DHT22;13713;52.552;13.204;2022-09-09T06:19:00;22.50;59.80
25906;DHT22;13713;52.552;13.204;2022-09-09T06:21:30;22.50;59.90
25906;DHT22;13713;52.552;13.204;2022-09-09T06:23:58;22.40;60.10
25906;DHT22;13713;52.552;13.204;2022-09-09T06:26:29;22.50;60.20
25906;DHT22;13713;52.552;13.204;2022-09-09T06:28:57;22.50;60.30
25906;DHT22;13713;52.552;13.204;2022-09-09T06:31:28;22.50;60.30
25906;DHT22;13713;52.552;13.204;2022-09-09T06:33:58;22.50;60.40
25906;DHT22;13713;52.552;13.204;2022-09-09T06:36:29;22.50;60.30
25906;DHT22;13713;52.552;13.204;2022-09-09T06:38:55;22.50;60.40
25906;DHT22;13713;52.552;13.204;2022-09-09T06:41:23;22.50;60.40
25906;DHT22;13713;52.552;13.204;2022-09-09T06:43:49;22.50;60.50
25906;DHT22;13713;52.552;13.204;2022-09-09T06:46:20;22.50;60.30
25906;DHT22;13713;52.552;13.204;2022-09-09T06:48:50;22.50;60.40
25906;DHT22;13713;52.552;13.204;2022-09-09T06:51:20;22.50;60.40
25906;DHT22;13713;52.552;13.204;2022-09-09T06:53:47;22.40;60.40
25906;DHT22;13713;52.552;13.204;2022-09-09T06:56:41;22.40;60.40
25906;DHT22;13713;52.552;13.204;2022-09-09T06:59:12;22.40;60.50
25906;DHT22;13713;52.552;13.204;2022-09-09T07:01:41;22.40;61.40
25906;DHT22;13713;52.552;13.204;2022-09-09T07:04:11;22.40;60.70
25906;DHT22;13713;52.552;13.204;2022-09-09T07:06:42;22.40;60.80
25906;DHT22;13713;52.552;13.204;2022-09-09T07:09:12;22.40;60.90
25906;DHT22;13713;52.552;13.204;2022-09-09T07:11:45;22.40;60.80
25906;DHT22;13713;52.552;13.204;2022-09-09T07:14:13;22.40;60.80
25906;DHT22;13713;52.552;13.204;2022-09-09T07:16:45;22.40;60.70
25906;DHT22;13713;52.552;13.204;2022-09-09T07:19:13;22.40;60.70
25906;DHT22;13713;52.552;13.204;2022-09-09T07:21:40;22.40;60.70
25906;DHT22;13713;52.552;13.204;2022-09-09T07:24:07;22.40;60.80
25906;DHT22;13713;52.552;13.204;2022-09-09T07:26:36;22.40;60.70
25906;DHT22;13713;52.552;13.204;2022-09-09T07:29:03;22.40;60.70
25906;DHT22;13713;52.552;13.204;2022-09-09T07:31:31;22.40;60.70
25906;DHT22;13713;52.552;13.204;2022-09-09T07:33:58;22.40;60.70
25906;DHT22;13713;52.552;13.204;2022-09-09T07:36:43;22.40;60.70
25906;DHT22;13713;52.552;13.204;2022-09-09T07:39:13;22.30;60.60
25906;DHT22;13713;52.552;13.204;2022-09-09T07:41:44;22.40;60.70
25906;DHT22;13713;52.552;13.204;2022-09-09T07:44:14;22.30;60.80
25906;DHT22;13713;52.552;13.204;2022-09-09T07:46:41;22.30;60.80
25906;DHT22;13713;52.552;13.204;2022-09-09T07:49:09;22.30;61.00
25906;DHT22;13713;52.552;13.204;2022-09-09T07:51:38;22.30;61.00
25906;DHT22;13713;52.552;13.204;2022-09-09T07:54:07;22.30;61.10
25906;DHT22;13713;52.552;13.204;2022-09-09T07:56:38;22.30;61.10
25906;DHT22;13713;52.552;13.204;2022-09-09T07:59:04;22.30;61.20
25906;DHT22;13713;52.552;13.204;2022-09-09T08:01:44;22.30;61.20
25906;DHT22;13713;52.552;13.204;2022-09-09T08:04:14;22.30;61.20
25906;DHT22;13713;52.552;13.204;2022-09-09T08:06:44;22.30;61.20
25906;DHT22;13713;52.552;13.204;2022-09-09T08:09:11;22.30;61.20
25906;DHT22;13713;52.552;13.204;2022-09-09T08:11:38;22.40;61.20
25906;DHT22;13713;52.552;13.204;2022-09-09T08:14:05;22.40;61.30
25906;DHT22;13713;52.552;13.204;2022-09-09T08:16:37;22.40;61.40
25906;DHT22;13713;52.552;13.204;2022-09-09T08:19:05;22.40;61.50
25906;DHT22;13713;52.552;13.204;2022-09-09T08:21:33;22.40;61.60
25906;DHT22;13713;52.552;13.204;2022-09-09T08:24:01;22.40;61.50
25906;DHT22;13713;52.552;13.204;2022-09-09T08:26:29;22.40;61.60
25906;DHT22;13713;52.552;13.204;2022-09-09T08:28:57;22.40;62.00
25906;DHT22;13713;52.552;13.204;2022-09-09T08:31:33;22.40;61.70
25906;DHT22;13713;52.552;13.204;2022-09-09T08:34:00;22.40;61.50
25906;DHT22;13713;52.552;13.204;2022-09-09T08:36:29;22.40;61.40
25906;DHT22;13713;52.552;13.204;2022-09-09T08:38:57;22.40;61.40
25906;DHT22;13713;52.552;13.204;2022-09-09T08:47:30;22.50;61.50
25906;DHT22;13713;52.552;13.204;2022-09-09T08:50:06;22.50;61.50
25906;DHT22;13713;52.552;13.204;2022-09-09T08:55:47;22.50;61.50
25906;DHT22;13713;52.552;13.204;2022-09-09T08:58:18;22.50;61.60
25906;DHT22;13713;52.552;13.204;2022-09-09T09:01:01;22.50;61.70
25906;DHT22;13713;52.552;13.204;2022-09-09T09:03:51;22.50;61.90
25906;DHT22;13713;52.552;13.204;2022-09-09T09:09:24;22.50;62.00
25906;DHT22;13713;52.552;13.204;2022-09-09T09:11:56;22.50;61.90
25906;DHT22;13713;52.552;13.204;2022-09-09T09:14:31;22.50;62.00
25906;DHT22;13713;52.552;13.204;2022-09-09T09:17:22;22.50;62.10
25906;DHT22;13713;52.552;13.204;2022-09-09T09:19:49;22.50;62.10
25906;DHT22;13713;52.552;13.204;2022-09-09T09:22:18;22.50;62.10
25906;DHT22;13713;52.552;13.204;2022-09-09T09:25:19;22.50;62.20
25906;DHT22;13713;52.552;13.204;2022-09-09T09:27:58;22.50;62.10
25906;DHT22;13713;52.552;13.204;2022-09-09T09:30:40;22.50;62.10
25906;DHT22;13713;52.552;13.204;2022-09-09T09:33:16;22.50;62.10
25906;DHT22;13713;52.552;13.204;2022-09-09T09:35:43;22.50;62.10
25906;DHT22;13713;52.552;13.204;2022-09-09T09:38:17;22.60;62.20
25906;DHT22;13713;52.552;13.204;2022-09-09T09:40:55;22.50;62.10
25906;DHT22;13713;52.552;13.204;2022-09-09T09:43:28;22.60;62.20
25906;DHT22;13713;52.552;13.204;2022-09-09T09:45:56;22.60;62.10
25906;DHT22;13713;52.552;13.204;2022-09-09T09:48:24;22.60;62.30
25906;DHT22;13713;52.552;13.204;2022-09-09T09:51:07;22.60;62.20
25906;DHT22;13713;52.552;13.204;2022-09-09T09:53:36;22.60;62.20
25906;DHT22;13713;52.552;13.204;2022-09-09T09:56:06;22.60;62.30
25906;DHT22;13713;52.552;13.204;2022-09-09T09:58:46;22.60;62.30
25906;DHT22;13713;52.552;13.204;2022-09-09T10:01:30;22.60;62.20
25906;DHT22;13713;52.552;13.204;2022-09-09T10:04:22;22.60;62.30
25906;DHT22;13713;52.552;13.204;2022-09-09T10:06:51;22.60;62.20
25906;DHT22;13713;52.552;13.204;2022-09-09T10:09:28;22.70;62.30
25906;DHT22;13713;52.552;13.204;2022-09-09T10:15:15;22.70;62.20
25906;DHT22;13713;52.552;13.204;2022-09-09T10:18:03;22.70;62.30
25906;DHT22;13713;52.552;13.204;2022-09-09T10:23:22;22.70;62.30
25906;DHT22;13713;52.552;13.204;2022-09-09T10:37:16;22.80;62.20
25906;DHT22;13713;52.552;13.204;2022-09-09T10:39:51;22.80;62.30
25906;DHT22;13713;52.552;13.204;2022-09-09T10:42:21;22.80;62.30
25906;DHT22;13713;52.552;13.204;2022-09-09T10:51:01;22.90;62.20
25906;DHT22;13713;52.552;13.204;2022-09-09T10:56:12;22.90;62.00
25906;DHT22;13713;52.552;13.204;2022-09-09T10:58:51;23.00;62.00
25906;DHT22;13713;52.552;13.204;2022-09-09T11:01:37;23.00;62.00
25906;DHT22;13713;52.552;13.204;2022-09-09T11:04:17;23.00;62.10
25906;DHT22;13713;52.552;13.204;2022-09-09T11:06:49;23.00;61.90
25906;DHT22;13713;52.552;13.204;2022-09-09T11:09:20;23.00;61.80
25906;DHT22;13713;52.552;13.204;2022-09-09T11:11:53;23.00;61.90
25906;DHT22;13713;52.552;13.204;2022-09-09T11:15:04;23.00;61.70
25906;DHT22;13713;52.552;13.204;2022-09-09T11:17:39;23.00;61.60
25906;DHT22;13713;52.552;13.204;2022-09-09T11:20:06;23.10;61.70
25906;DHT22;13713;52.552;13.204;2022-09-09T11:22:44;23.10;61.70
25906;DHT22;13713;52.552;13.204;2022-09-09T11:25:25;23.10;61.60
25906;DHT22;13713;52.552;13.204;2022-09-09T11:30:21;23.10;61.50
25906;DHT22;13713;52.552;13.204;2022-09-09T11:33:26;23.10;61.40
25906;DHT22;13713;52.552;13.204;2022-09-09T11:36:06;23.10;61.40
25906;DHT22;13713;52.552;13.204;2022-09-09T11:38:48;23.20;61.40
25906;DHT22;13713;52.552;13.204;2022-09-09T11:41:17;23.20;61.30
25906;DHT22;13713;52.552;13.204;2022-09-09T11:43:47;23.20;61.20
25906;DHT22;13713;52.552;13.204;2022-09-09T11:46:17;23.20;61.20
25906;DHT22;13713;52.552;13.204;2022-09-09T11:48:57;23.20;61.20
25906;DHT22;13713;52.552;13.204;2022-09-09T11:51:30;23.20;61.20
25906;DHT22;13713;52.552;13.204;2022-09-09T11:53:58;23.20;61.10
25906;DHT22;13713;52.552;13.204;2022-09-09T11:56:30;23.20;61.10
25906;DHT22;13713;52.552;13.204;2022-09-09T11:59:05;23.20;61.10
25906;DHT22;13713;52.552;13.204;2022-09-09T12:01:39;23.20;61.00
25906;DHT22;13713;52.552;13.204;2022-09-09T12:04:26;23.20;61.00
25906;DHT22;13713;52.552;13.204;2022-09-09T12:07:00;23.20;60.90
25906;DHT22;13713;52.552;13.204;2022-09-09T12:12:41;23.20;60.80
25906;DHT22;13713;52.552;13.204;2022-09-09T12:17:45;23.20;60.80
25906;DHT22;13713;52.552;13.204;2022-09-09T12:20:37;23.30;61.60
25906;DHT22;13713;52.552;13.204;2022-09-09T12:23:23;23.30;60.70
25906;DHT22;13713;52.552;13.204;2022-09-09T12:26:30;23.30;60.70
25906;DHT22;13713;52.552;13.204;2022-09-09T12:29:28;23.30;60.60
25906;DHT22;13713;52.552;13.204;2022-09-09T12:32:06;23.30;60.50
25906;DHT22;13713;52.552;13.204;2022-09-09T12:34:53;23.30;60.40
25906;DHT22;13713;52.552;13.204;2022-09-09T12:37:24;23.30;60.40
25906;DHT22;13713;52.552;13.204;2022-09-09T12:39:57;23.30;60.30
25906;DHT22;13713;52.552;13.204;2022-09-09T12:42:26;23.30;60.30
25906;DHT22;13713;52.552;13.204;2022-09-09T12:44:57;23.30;60.20
25906;DHT22;13713;52.552;13.204;2022-09-09T12:47:24;23.30;60.20
25906;DHT22;13713;52.552;13.204;2022-09-09T12:49:51;23.40;60.20
25906;DHT22;13713;52.552;13.204;2022-09-09T12:52:25;23.40;60.20
25906;DHT22;13713;52.552;13.204;2022-09-09T12:54:52;23.30;60.00
25906;DHT22;13713;52.552;13.204;2022-09-09T12:57:19;23.40;60.00
25906;DHT22;13713;52.552;13.204;2022-09-09T12:59:47;23.40;60.00
25906;DHT22;13713;52.552;13.204;2022-09-09T13:02:25;23.40;60.00
25906;DHT22;13713;52.552;13.204;2022-09-09T13:04:51;23.40;59.90
25906;DHT22;13713;52.552;13.204;2022-09-09T13:07:19;23.40;59.90
25906;DHT22;13713;52.552;13.204;2022-09-09T13:09:46;23.40;59.90
25906;DHT22;13713;52.552;13.204;2022-09-09T13:12:21;23.40;59.80
25906;DHT22;13713;52.552;13.204;2022-09-09T13:14:51;23.40;59.80
25906;DHT22;13713;52.552;13.204;2022-09-09T13:17:27;23.40;59.90
25906;DHT22;13713;52.552;13.204;2022-09-09T13:19:54;23.40;59.70
25906;DHT22;13713;52.552;13.204;2022-09-09T13:22:30;23.40;59.60
25906;DHT22;13713;52.552;13.204;2022-09-09T13:27:35;23.50;59.50
25906;DHT22;13713;52.552;13.204;2022-09-09T13:35:33;23.50;59.30
25906;DHT22;13713;52.552;13.204;2022-09-09T13:38:06;23.50;59.30
25906;DHT22;13713;52.552;13.204;2022-09-09T13:40:33;23.50;59.30
25906;DHT22;13713;52.552;13.204;2022-09-09T13:42:59;23.50;59.20
25906;DHT22;13713;52.552;13.204;2022-09-09T13:45:26;23.50;59.10
25906;DHT22;13713;52.552;13.204;2022-09-09T13:47:53;23.50;59.10
25906;DHT22;13713;52.552;13.204;2022-09-09T13:50:28;23.60;59.10
25906;DHT22;13713;52.552;13.204;2022-09-09T13:52:55;23.60;59.10
25906;DHT22;13713;52.552;13.204;2022-09-09T13:55:25;23.60;59.20
25906;DHT22;13713;52.552;13.204;2022-09-09T13:57:55;23.60;59.20
25906;DHT22;13713;52.552;13.204;2022-09-09T14:00:22;23.60;59.10
25906;DHT22;13713;52.552;13.204;2022-09-09T14:02:50;23.60;59.00
25906;DHT22;13713;52.552;13.204;2022-09-09T14:05:16;23.50;59.00
25906;DHT22;13713;52.552;13.204;2022-09-09T14:07:43;23.60;59.10
25906;DHT22;13713;52.552;13.204;2022-09-09T14:10:10;23.60;59.00
25906;DHT22;13713;52.552;13.204;2022-09-09T14:12:36;23.50;59.00
25906;DHT22;13713;52.552;13.204;2022-09-09T14:15:03;23.50;59.00
25906;DHT22;13713;52.552;13.204;2022-09-09T14:17:29;23.50;59.00
25906;DHT22;13713;52.552;13.204;2022-09-09T14:19:57;23.50;59.00
25906;DHT22;13713;52.552;13.204;2022-09-09T14:22:23;23.50;59.00
25906;DHT22;13713;52.552;13.204;2022-09-09T14:24:49;23.50;59.00
25906;DHT22;13713;52.552;13.204;2022-09-09T14:27:16;23.50;59.00
25906;DHT22;13713;52.552;13.204;2022-09-09T14:29:42;23.50;58.90
25906;DHT22;13713;52.552;13.204;2022-09-09T14:32:10;23.50;58.90
25906;DHT22;13713;52.552;13.204;2022-09-09T14:34:35;23.50;58.90
25906;DHT22;13713;52.552;13.204;2022-09-09T14:37:01;23.50;58.80
25906;DHT22;13713;52.552;13.204;2022-09-09T14:39:27;23.50;58.90
25906;DHT22;13713;52.552;13.204;2022-09-09T14:41:52;23.50;58.90
25906;DHT22;13713;52.552;13.204;2022-09-09T14:44:18;23.50;58.80
25906;DHT22;13713;52.552;13.204;2022-09-09T14:46:44;23.50;58.90
25906;DHT22;13713;52.552;13.204;2022-09-09T14:49:10;23.50;58.90
25906;DHT22;13713;52.552;13.204;2022-09-09T14:51:36;23.50;58.90
25906;DHT22;13713;52.552;13.204;2022-09-09T14:54:02;23.50;58.90
25906;DHT22;13713;52.552;13.204;2022-09-09T14:56:31;23.50;58.90
25906;DHT22;13713;52.552;13.204;2022-09-09T14:58:58;23.50;59.50
25906;DHT22;13713;52.552;13.204;2022-09-09T15:01:26;23.50;58.90
25906;DHT22;13713;52.552;13.204;2022-09-09T15:03:54;23.50;58.90
25906;DHT22;13713;52.552;13.204;2022-09-09T15:06:22;23.50;58.90
25906;DHT22;13713;52.552;13.204;2022-09-09T15:08:51;23.50;58.90
25906;DHT22;13713;52.552;13.204;2022-09-09T15:11:17;23.50;58.90
25906;DHT22;13713;52.552;13.204;2022-09-09T15:13:44;23.50;58.90
25906;DHT22;13713;52.552;13.204;2022-09-09T15:16:14;23.50;58.90
25906;DHT22;13713;52.552;13.204;2022-09-09T15:18:41;23.50;58.90
25906;DHT22;13713;52.552;13.204;2022-09-09T15:21:15;23.50;58.90
25906;DHT22;13713;52.552;13.204;2022-09-09T15:23:41;23.50;58.90
25906;DHT22;13713;52.552;13.204;2022-09-09T15:26:07;23.50;58.90
25906;DHT22;13713;52.552;13.204;2022-09-09T15:28:35;23.50;58.90
25906;DHT22;13713;52.552;13.204;2022-09-09T15:31:09;23.50;58.90
25906;DHT22;13713;52.552;13.204;2022-09-09T15:33:35;23.50;58.90
25906;DHT22;13713;52.552;13.204;2022-09-09T15:36:17;23.50;58.90
25906;DHT22;13713;52.552;13.204;2022-09-09T15:38:43;23.50;58.90
25906;DHT22;13713;52.552;13.204;2022-09-09T15:41:09;23.50;58.90
25906;DHT22;13713;52.552;13.204;2022-09-09T15:43:35;23.50;58.90
25906;DHT22;13713;52.552;13.204;2022-09-09T15:48:43;23.40;58.90
25906;DHT22;13713;52.552;13.204;2022-09-09T15:51:10;23.50;58.90
25906;DHT22;13713;52.552;13.204;2022-09-09T15:53:37;23.40;58.90
25906;DHT22;13713;52.552;13.204;2022-09-09T15:56:05;23.40;58.90
25906;DHT22;13713;52.552;13.204;2022-09-09T15:58:35;23.40;58.90
25906;DHT22;13713;52.552;13.204;2022-09-09T16:01:09;23.40;58.90
25906;DHT22;13713;52.552;13.204;2022-09-09T16:03:37;23.40;58.90
25906;DHT22;13713;52.552;13.204;2022-09-09T16:06:04;23.40;58.90
25906;DHT22;13713;52.552;13.204;2022-09-09T16:08:35;23.40;59.00
25906;DHT22;13713;52.552;13.204;2022-09-09T16:13:33;23.40;58.90
25906;DHT22;13713;52.552;13.204;2022-09-09T16:15:59;23.40;59.00
25906;DHT22;13713;52.552;13.204;2022-09-09T16:18:25;23.40;59.00
25906;DHT22;13713;52.552;13.204;2022-09-09T16:20:56;23.40;59.00
25906;DHT22;13713;52.552;13.204;2022-09-09T16:23:22;23.40;59.00
25906;DHT22;13713;52.552;13.204;2022-09-09T16:25:54;23.40;59.00
25906;DHT22;13713;52.552;13.204;2022-09-09T16:28:20;23.40;59.00
25906;DHT22;13713;52.552;13.204;2022-09-09T16:30:45;23.40;59.00
25906;DHT22;13713;52.552;13.204;2022-09-09T16:33:11;23.40;59.00
25906;DHT22;13713;52.552;13.204;2022-09-09T16:35:40;23.40;59.00
25906;DHT22;13713;52.552;13.204;2022-09-09T16:38:06;23.40;59.00
25906;DHT22;13713;52.552;13.204;2022-09-09T16:40:36;23.40;59.00
25906;DHT22;13713;52.552;13.204;2022-09-09T16:43:03;23.40;59.10
25906;DHT22;13713;52.552;13.204;2022-09-09T16:45:29;23.40;59.10
25906;DHT22;13713;52.552;13.204;2022-09-09T16:47:55;23.40;59.10
25906;DHT22;13713;52.552;13.204;2022-09-09T16:50:21;23.40;59.10
25906;DHT22;13713;52.552;13.204;2022-09-09T16:52:47;23.40;59.10
25906;DHT22;13713;52.552;13.204;2022-09-09T16:55:13;23.30;59.00
25906;DHT22;13713;52.552;13.204;2022-09-09T16:57:39;23.30;59.10
25906;DHT22;13713;52.552;13.204;2022-09-09T17:00:05;23.30;59.00
25906;DHT22;13713;52.552;13.204;2022-09-09T17:02:32;23.30;59.10